Time;durP1;ratioP1;P1;durP2;ratioP2;P2;SDS_P1;SDS_P2;PMS_P1;PMS_P2;Temp;Humidity;BMP_temperature;BMP_pressure;BME280_temperature;BME280_humidity;BME280_pressure;Samples;Min_cycle;Max_cycle;Signal;HPM_P1;HPM_P2
2022/09/13 00:02:00;;;;;;;2.10;1.17;;;15.60;95.60;;;;;;4999954;28;20648;-79
2022/09/13 00:04:27;;;;;;;1.80;1.13;;;15.60;95.30;;;;;;4998640;28;20627;-79
2022/09/13 00:06:54;;;;;;;1.33;1.13;;;15.60;95.20;;;;;;4999217;28;20637;-78
2022/09/13 00:09:20;;;;;;;1.30;1.20;;;15.60;95.60;;;;;;4995130;28;20659;-80
2022/09/13 00:11:47;;;;;;;0.90;0.90;;;15.40;96.40;;;;;;4999536;28;20627;-79
2022/09/13 00:14:15;;;;;;;1.40;1.20;;;15.20;96.40;;;;;;4997140;28;20767;-77
2022/09/13 00:16:42;;;;;;;1.50;1.40;;;15.00;96.80;;;;;;4999115;28;20629;-78
2022/09/13 00:19:09;;;;;;;1.70;1.27;;;15.00;96.90;;;;;;4997157;28;20633;-77
2022/09/13 00:21:36;;;;;;;0.77;0.50;;;15.20;96.80;;;;;;5001699;28;20628;-77
2022/09/13 00:24:03;;;;;;;0.83;0.83;;;15.30;96.50;;;;;;4988262;28;20625;-76
2022/09/13 00:26:30;;;;;;;0.97;0.93;;;15.30;96.00;;;;;;4992026;28;20634;-78
2022/09/13 00:28:58;;;;;;;1.77;1.07;;;15.20;96.50;;;;;;5007785;28;20770;-80
2022/09/13 00:31:28;;;;;;;1.10;1.00;;;15.20;96.70;;;;;;5007117;28;20629;-80
2022/09/13 00:33:57;;;;;;;0.70;0.63;;;15.10;97.30;;;;;;5006792;28;20631;-80
2022/09/13 00:36:24;;;;;;;0.83;0.83;;;15.00;97.50;;;;;;5001465;28;20694;-80
2022/09/13 00:38:50;;;;;;;0.80;0.73;;;14.90;97.70;;;;;;5007438;28;20624;-80
2022/09/13 00:41:19;;;;;;;1.53;1.10;;;15.00;97.70;;;;;;5007615;28;20625;-79
2022/09/13 00:43:49;;;;;;;1.00;0.77;;;15.00;97.80;;;;;;5007890;28;20643;-80
2022/09/13 00:46:27;;;;;;;0.80;0.80;;;14.90;97.80;;;;;;5007489;28;20631;-78
2022/09/13 00:49:00;;;;;;;0.60;0.60;;;14.80;98.20;;;;;;5007449;28;20670;-79
2022/09/13 00:51:28;;;;;;;0.87;0.70;;;14.80;98.20;;;;;;5007804;28;20630;-79
2022/09/13 00:53:58;;;;;;;1.10;0.77;;;14.80;98.20;;;;;;5007699;28;20631;-79
2022/09/13 00:56:29;;;;;;;0.93;0.80;;;14.70;98.30;;;;;;5007292;28;20682;-78
2022/09/13 00:59:00;;;;;;;0.67;0.60;;;14.80;98.30;;;;;;4996141;28;20712;-79
2022/09/13 01:01:34;;;;;;;0.80;0.80;;;14.80;97.50;;;;;;5002834;28;20730;-78
2022/09/13 01:04:03;;;;;;;0.60;0.60;;;14.90;97.80;;;;;;5005848;28;20619;-79
2022/09/13 01:06:32;;;;;;;0.60;0.60;;;14.90;97.50;;;;;;5006840;28;20640;-80
2022/09/13 01:09:03;;;;;;;0.70;0.67;;;14.90;97.20;;;;;;5006200;28;20668;-80
2022/09/13 01:11:34;;;;;;;2.80;0.90;;;15.00;97.10;;;;;;5007738;28;20616;-79
2022/09/13 01:14:03;;;;;;;0.80;0.80;;;14.90;97.80;;;;;;5006762;28;20636;-80
2022/09/13 01:16:32;;;;;;;0.77;0.70;;;14.80;98.20;;;;;;5007398;28;20616;-78
2022/09/13 01:19:00;;;;;;;0.70;0.70;;;14.80;98.10;;;;;;5007423;28;21276;-79
2022/09/13 01:22:15;;;;;;;0.97;0.80;;;14.90;97.70;;;;;;5011068;28;20660;-78
2022/09/13 01:25:09;;;;;;;0.83;0.80;;;14.80;98.00;;;;;;5010484;28;20755;-78
2022/09/13 01:27:52;;;;;;;0.60;0.60;;;14.70;98.30;;;;;;4994898;28;21217;-80
2022/09/13 01:30:24;;;;;;;0.83;0.83;;;14.60;98.40;;;;;;5011030;28;20632;-79
2022/09/13 01:33:32;;;;;;;1.07;0.80;;;14.60;98.80;;;;;;5010412;28;20673;-78
2022/09/13 01:36:21;;;;;;;1.33;0.93;;;14.50;98.70;;;;;;4960650;28;20652;-78
2022/09/13 01:38:59;;;;;;;0.90;0.90;;;14.50;98.90;;;;;;5010643;28;20667;-80
2022/09/13 01:41:49;;;;;;;0.73;0.67;;;14.40;98.80;;;;;;5010953;28;21193;-78
2022/09/13 01:44:29;;;;;;;1.03;0.93;;;14.30;99.10;;;;;;5010888;28;20708;-78
2022/09/13 01:47:05;;;;;;;0.70;0.70;;;14.30;99.30;;;;;;5010964;28;21043;-79
2022/09/13 01:49:41;;;;;;;0.60;0.60;;;14.40;98.70;;;;;;5010429;28;20663;-80
2022/09/13 01:52:14;;;;;;;1.60;1.00;;;14.30;99.20;;;;;;5009911;28;21049;-80
2022/09/13 01:54:51;;;;;;;0.60;0.60;;;14.30;99.40;;;;;;5010407;28;21004;-80
2022/09/13 01:57:24;;;;;;;0.90;0.90;;;14.20;99.70;;;;;;4996355;28;21028;-79
2022/09/13 01:59:55;;;;;;;1.27;1.23;;;14.20;99.90;;;;;;5008803;28;21217;-79
2022/09/13 02:02:31;;;;;;;1.13;0.60;;;14.10;99.90;;;;;;5005937;28;20641;-78
2022/09/13 02:05:03;;;;;;;0.50;0.50;;;14.20;99.90;;;;;;4996740;28;21233;-79
2022/09/13 02:07:36;;;;;;;1.50;1.10;;;14.20;99.90;;;;;;5010523;28;20659;-79
2022/09/13 02:10:09;;;;;;;0.80;0.70;;;14.20;99.50;;;;;;5010290;28;20683;-80
2022/09/13 02:12:41;;;;;;;0.73;0.73;;;14.20;99.00;;;;;;5010419;28;21127;-79
2022/09/13 02:15:13;;;;;;;0.90;0.90;;;14.10;99.30;;;;;;4990590;28;20621;-77
2022/09/13 02:17:47;;;;;;;2.03;1.30;;;14.10;99.20;;;;;;4997466;28;21025;-79
2022/09/13 02:20:19;;;;;;;1.83;1.40;;;14.10;98.80;;;;;;5010389;28;20622;-79
2022/09/13 02:22:52;;;;;;;1.10;1.10;;;14.20;99.20;;;;;;5009458;28;20659;-79
2022/09/13 02:25:24;;;;;;;1.10;0.90;;;14.10;99.70;;;;;;5009538;28;20674;-79
2022/09/13 02:28:00;;;;;;;1.07;0.97;;;14.00;99.60;;;;;;4995075;28;20699;-81
2022/09/13 02:30:28;;;;;;;0.80;0.80;;;14.00;99.80;;;;;;5001733;28;20719;-78
2022/09/13 02:33:01;;;;;;;1.67;1.00;;;14.00;99.90;;;;;;4999108;28;20623;-78
2022/09/13 02:35:35;;;;;;;1.00;1.00;;;14.10;99.80;;;;;;5009452;28;20612;-80
2022/09/13 02:38:06;;;;;;;0.90;0.90;;;14.20;99.50;;;;;;5009899;28;20626;-78
2022/09/13 02:40:40;;;;;;;2.10;1.17;;;14.10;99.30;;;;;;5009761;28;20628;-79
2022/09/13 02:43:13;;;;;;;0.90;0.90;;;14.10;99.20;;;;;;5009790;28;21057;-79
2022/09/13 02:45:47;;;;;;;1.57;1.47;;;14.10;99.40;;;;;;4989876;28;21013;-79
2022/09/13 02:48:23;;;;;;;1.27;1.17;;;14.10;99.10;;;;;;5004034;28;20700;-79
2022/09/13 02:50:59;;;;;;;1.00;0.90;;;14.10;99.20;;;;;;5010290;28;21193;-79
2022/09/13 02:53:34;;;;;;;1.30;1.20;;;14.00;99.30;;;;;;5003005;28;20691;-79
2022/09/13 02:56:11;;;;;;;1.10;1.10;;;14.00;99.40;;;;;;5000739;28;20717;-78
2022/09/13 02:58:45;;;;;;;0.93;0.93;;;14.00;99.50;;;;;;5004715;28;20656;-79
2022/09/13 03:01:14;;;;;;;1.50;1.40;;;13.90;99.80;;;;;;5009058;28;20627;-79
2022/09/13 03:03:43;;;;;;;1.00;1.00;;;13.90;99.90;;;;;;5000881;28;21262;-79
2022/09/13 03:06:10;;;;;;;0.77;0.70;;;13.90;99.90;;;;;;5008726;28;20717;-80
2022/09/13 03:08:37;;;;;;;1.67;1.40;;;13.90;99.90;;;;;;5008999;28;20702;-80
2022/09/13 03:11:12;;;;;;;1.60;1.27;;;13.80;99.90;;;;;;5009565;28;20674;-79
2022/09/13 03:14:07;;;;;;;1.53;1.43;;;13.90;99.90;;;;;;5009372;28;20995;-79
2022/09/13 03:16:45;;;;;;;0.97;0.97;;;13.90;99.90;;;;;;5003695;28;20636;-78
2022/09/13 03:19:35;;;;;;;1.10;1.03;;;13.90;99.90;;;;;;5009025;28;20685;-78
2022/09/13 03:22:28;;;;;;;1.40;1.30;;;13.90;99.90;;;;;;5009115;28;20719;-79
2022/09/13 03:25:07;;;;;;;1.87;1.40;;;13.90;99.90;;;;;;5008349;28;20692;-78
2022/09/13 03:27:40;;;;;;;0.87;0.87;;;13.90;99.90;;;;;;5009175;28;21047;-79
2022/09/13 03:30:08;;;;;;;1.20;1.10;;;13.90;99.90;;;;;;5009211;28;20620;-80
2022/09/13 03:32:41;;;;;;;1.67;1.57;;;13.90;99.90;;;;;;5008723;28;20613;-79
2022/09/13 03:35:22;;;;;;;2.47;1.93;;;13.90;99.90;;;;;;5000339;28;20670;-78
2022/09/13 03:37:56;;;;;;;1.23;1.13;;;13.90;99.90;;;;;;5008286;28;20628;-80
2022/09/13 03:40:44;;;;;;;1.20;1.10;;;13.90;99.90;;;;;;5009018;28;20634;-80
2022/09/13 03:43:16;;;;;;;4.47;1.20;;;13.80;99.90;;;;;;5008323;28;21071;-80
2022/09/13 03:45:46;;;;;;;1.33;1.23;;;13.90;99.90;;;;;;5008627;28;21197;-79
2022/09/13 03:48:14;;;;;;;1.17;1.17;;;13.70;99.90;;;;;;5007380;28;20714;-79
2022/09/13 03:50:43;;;;;;;1.40;1.30;;;13.80;99.90;;;;;;5009346;28;20622;-80
2022/09/13 03:53:12;;;;;;;1.27;1.13;;;13.80;99.90;;;;;;5008356;28;20638;-78
2022/09/13 03:55:41;;;;;;;1.30;1.20;;;13.80;99.90;;;;;;5007612;28;21461;-80
2022/09/13 03:58:11;;;;;;;1.47;1.37;;;13.80;99.90;;;;;;5003638;28;20640;-80
2022/09/13 04:00:39;;;;;;;1.33;1.23;;;13.70;99.90;;;;;;5007731;28;20655;-79
2022/09/13 04:03:06;;;;;;;1.27;1.17;;;13.70;99.90;;;;;;5008059;28;20713;-79
2022/09/13 04:05:33;;;;;;;1.73;1.50;;;13.70;99.90;;;;;;5007211;28;20627;-79
2022/09/13 04:08:02;;;;;;;1.43;1.33;;;13.70;99.90;;;;;;5007332;28;20639;-78
2022/09/13 04:10:30;;;;;;;1.60;1.40;;;13.70;99.90;;;;;;5008498;28;20624;-80
2022/09/13 04:12:58;;;;;;;1.10;1.00;;;13.70;99.90;;;;;;5007952;28;20629;-79
2022/09/13 04:15:25;;;;;;;1.73;1.63;;;13.80;99.90;;;;;;5007552;28;20631;-78
2022/09/13 04:17:51;;;;;;;1.70;1.60;;;13.80;99.90;;;;;;5007999;28;21356;-79
2022/09/13 04:20:19;;;;;;;2.43;1.27;;;13.80;99.90;;;;;;5007497;28;20612;-78
2022/09/13 04:22:51;;;;;;;1.23;0.93;;;13.80;99.90;;;;;;5007709;28;20624;-78
2022/09/13 04:25:20;;;;;;;1.27;1.20;;;13.70;99.90;;;;;;5007435;28;20636;-78
2022/09/13 04:27:47;;;;;;;3.10;1.30;;;14.80;99.90;;;;;;5007183;28;20631;-78
2022/09/13 04:30:15;;;;;;;1.20;1.10;;;13.80;99.90;;;;;;5008092;28;20676;-80
2022/09/13 04:32:43;;;;;;;1.23;1.13;;;13.80;99.90;;;;;;5008090;28;20626;-79
2022/09/13 04:35:10;;;;;;;1.20;1.10;;;13.80;99.90;;;;;;5007236;28;20639;-78
2022/09/13 04:37:38;;;;;;;1.63;1.40;;;13.70;99.90;;;;;;5005778;28;20972;-79
2022/09/13 04:40:06;;;;;;;1.07;1.03;;;13.70;99.90;;;;;;5001525;28;20936;-79
2022/09/13 04:42:34;;;;;;;1.40;1.30;;;13.80;99.90;;;;;;5007999;28;20969;-79
2022/09/13 04:45:01;;;;;;;1.40;1.30;;;13.70;99.90;;;;;;5007704;28;20636;-79
2022/09/13 04:47:28;;;;;;;1.70;1.60;;;13.70;99.90;;;;;;5006711;28;20624;-79
2022/09/13 04:49:55;;;;;;;2.13;1.43;;;13.70;99.90;;;;;;5007966;28;20670;-80
2022/09/13 04:52:22;;;;;;;1.60;1.33;;;13.70;99.90;;;;;;5007835;28;20628;-78
2022/09/13 04:54:48;;;;;;;1.23;1.13;;;13.80;99.90;;;;;;4996737;28;20625;-79
2022/09/13 04:57:16;;;;;;;2.63;1.80;;;13.80;99.90;;;;;;4997055;28;20737;-78
2022/09/13 04:59:44;;;;;;;1.97;1.63;;;13.90;99.90;;;;;;4997039;28;20625;-79
2022/09/13 05:02:11;;;;;;;0.90;0.90;;;13.90;99.90;;;;;;4997446;28;20771;-80
2022/09/13 05:04:38;;;;;;;1.27;1.17;;;14.00;99.90;;;;;;4998242;28;20632;-79
2022/09/13 05:07:05;;;;;;;2.37;1.60;;;14.00;99.90;;;;;;4994701;28;20640;-78
2022/09/13 05:09:32;;;;;;;1.47;1.37;;;13.90;99.90;;;;;;4997778;28;20663;-79
2022/09/13 05:11:58;;;;;;;1.70;1.60;;;13.90;99.90;;;;;;4995953;28;20624;-79
2022/09/13 05:14:25;;;;;;;1.80;1.60;;;13.90;99.90;;;;;;5003184;28;20683;-78
2022/09/13 05:16:54;;;;;;;1.00;1.00;;;13.90;99.90;;;;;;5007483;28;20624;-78
2022/09/13 05:19:21;;;;;;;1.57;1.47;;;13.80;99.90;;;;;;5002368;28;20743;-79
2022/09/13 05:21:48;;;;;;;1.30;1.20;;;13.80;99.90;;;;;;5005950;28;20628;-79
2022/09/13 05:24:14;;;;;;;1.87;1.23;;;13.80;99.90;;;;;;5006083;28;20620;-80
2022/09/13 05:26:41;;;;;;;1.50;1.40;;;13.90;99.90;;;;;;5007421;28;20612;-78
2022/09/13 05:29:08;;;;;;;1.70;1.60;;;13.90;99.90;;;;;;5006280;28;20672;-78
2022/09/13 05:31:37;;;;;;;2.20;1.53;;;13.90;99.90;;;;;;5007758;28;20724;-78
2022/09/13 05:34:09;;;;;;;1.90;1.80;;;13.90;99.90;;;;;;5004785;28;20620;-79
2022/09/13 05:36:36;;;;;;;1.13;1.13;;;14.00;99.90;;;;;;4989625;28;20640;-80
2022/09/13 05:39:04;;;;;;;1.27;1.17;;;14.00;99.90;;;;;;5007517;28;20643;-78
2022/09/13 05:41:31;;;;;;;4.30;1.80;;;14.00;99.90;;;;;;5007555;28;20718;-78
2022/09/13 05:43:58;;;;;;;2.87;1.80;;;13.90;99.90;;;;;;5007128;28;21186;-79
2022/09/13 05:46:24;;;;;;;2.33;1.80;;;14.00;99.90;;;;;;5002332;28;20632;-79
2022/09/13 05:48:51;;;;;;;1.47;1.37;;;14.10;99.90;;;;;;4992208;28;21259;-78
2022/09/13 05:51:21;;;;;;;1.30;1.00;;;14.00;99.90;;;;;;4987842;28;20667;-79
2022/09/13 05:53:50;;;;;;;2.13;1.93;;;14.10;99.90;;;;;;5006430;28;21226;-79
2022/09/13 05:56:19;;;;;;;1.70;1.60;;;14.10;99.90;;;;;;4994697;28;20638;-80
2022/09/13 05:58:48;;;;;;;3.03;2.67;;;14.00;99.90;;;;;;5005207;28;21193;-79
2022/09/13 06:01:15;;;;;;;1.40;1.30;;;14.20;99.90;;;;;;5003768;28;20639;-78
2022/09/13 06:03:42;;;;;;;2.47;2.23;;;14.20;99.90;;;;;;4996604;28;20625;-78
2022/09/13 06:06:11;;;;;;;1.70;1.60;;;14.50;99.90;;;;;;5007022;28;20630;-78
2022/09/13 06:08:39;;;;;;;2.73;2.10;;;14.60;99.90;;;;;;5009793;28;20626;-78
2022/09/13 06:11:08;;;;;;;1.43;1.30;;;14.50;99.90;;;;;;5010110;28;20635;-79
2022/09/13 06:13:39;;;;;;;2.13;1.70;;;14.60;99.90;;;;;;5009160;28;20682;-78
2022/09/13 06:16:08;;;;;;;2.00;1.90;;;14.80;99.90;;;;;;5000618;28;20633;-78
2022/09/13 06:18:35;;;;;;;3.00;1.70;;;14.90;99.90;;;;;;4991165;28;20652;-77
2022/09/13 06:21:04;;;;;;;1.60;1.27;;;14.90;99.90;;;;;;5003212;28;20976;-79
2022/09/13 06:23:31;;;;;;;1.50;1.40;;;14.90;99.90;;;;;;5010369;28;20616;-78
2022/09/13 06:26:04;;;;;;;1.73;1.43;;;14.90;99.90;;;;;;4996455;28;20625;-78
2022/09/13 06:28:31;;;;;;;2.40;1.87;;;14.80;99.90;;;;;;5004200;28;21024;-79
2022/09/13 06:31:03;;;;;;;2.50;1.83;;;14.80;99.90;;;;;;5009981;28;20672;-78
2022/09/13 06:33:30;;;;;;;1.70;1.60;;;15.00;99.90;;;;;;5009807;28;21316;-77
2022/09/13 06:36:01;;;;;;;2.63;1.90;;;15.00;99.90;;;;;;5000468;28;20616;-78
2022/09/13 06:38:28;;;;;;;1.50;1.40;;;15.00;99.90;;;;;;5001035;28;20636;-78
2022/09/13 06:41:00;;;;;;;3.93;1.97;;;15.10;99.90;;;;;;5009661;28;20783;-79
2022/09/13 06:43:28;;;;;;;2.70;1.87;;;15.20;99.90;;;;;;5006695;28;20625;-79
2022/09/13 06:46:00;;;;;;;1.30;1.20;;;15.20;99.90;;;;;;4999918;28;20624;-79
2022/09/13 06:48:27;;;;;;;2.83;1.93;;;15.30;99.90;;;;;;5000925;28;20629;-79
2022/09/13 06:50:58;;;;;;;2.73;1.77;;;15.40;99.90;;;;;;4997470;28;20726;-78
2022/09/13 06:53:26;;;;;;;1.50;1.40;;;15.60;99.90;;;;;;4998667;28;21208;-78
2022/09/13 06:56:01;;;;;;;1.63;1.23;;;15.80;99.90;;;;;;5001540;28;20624;-77
2022/09/13 06:58:30;;;;;;;1.33;1.23;;;15.90;99.90;;;;;;5004081;28;21258;-78
2022/09/13 07:01:10;;;;;;;1.87;1.67;;;16.00;99.90;;;;;;5003528;28;20638;-78
2022/09/13 07:03:37;;;;;;;1.53;1.43;;;16.10;99.90;;;;;;5007465;28;20628;-76
2022/09/13 07:06:09;;;;;;;1.27;1.17;;;16.30;99.90;;;;;;5007837;28;20631;-79
2022/09/13 07:08:36;;;;;;;3.70;2.00;;;16.50;99.90;;;;;;5009685;28;20635;-77
2022/09/13 07:11:03;;;;;;;1.90;1.80;;;16.60;99.90;;;;;;5009026;28;20674;-78
2022/09/13 07:13:31;;;;;;;1.70;1.60;;;16.70;99.90;;;;;;5009559;28;20628;-77
2022/09/13 07:16:01;;;;;;;1.83;1.73;;;16.80;99.90;;;;;;5008367;28;21045;-79
2022/09/13 07:18:28;;;;;;;1.80;1.70;;;17.00;99.20;;;;;;5008072;28;20632;-78
2022/09/13 07:21:00;;;;;;;1.77;1.67;;;17.10;98.90;;;;;;5009341;28;20629;-79
2022/09/13 07:23:27;;;;;;;2.23;1.27;;;17.20;99.00;;;;;;5009536;28;20643;-79
2022/09/13 07:25:55;;;;;;;1.33;1.23;;;17.20;99.00;;;;;;5008619;28;20634;-78
2022/09/13 07:28:22;;;;;;;1.63;1.27;;;17.20;98.70;;;;;;4999252;28;20633;-77
2022/09/13 07:30:50;;;;;;;1.53;1.43;;;17.30;99.20;;;;;;5006528;28;20665;-78
2022/09/13 07:33:17;;;;;;;1.80;1.70;;;17.40;98.30;;;;;;5008396;28;21183;-79
2022/09/13 07:35:43;;;;;;;1.93;1.73;;;17.50;98.50;;;;;;5006807;28;20639;-80
2022/09/13 07:38:10;;;;;;;1.60;1.47;;;17.60;98.20;;;;;;5002100;28;20649;-77
2022/09/13 07:40:37;;;;;;;1.97;1.33;;;17.70;97.60;;;;;;5006369;28;20731;-79
2022/09/13 07:43:04;;;;;;;1.90;1.30;;;17.90;96.80;;;;;;5007968;28;20622;-78
2022/09/13 07:45:31;;;;;;;1.47;1.37;;;17.90;96.90;;;;;;5008135;28;20686;-78
2022/09/13 07:47:59;;;;;;;1.40;1.30;;;17.80;97.10;;;;;;4982081;28;20636;-80
2022/09/13 07:50:26;;;;;;;1.17;1.17;;;18.10;96.00;;;;;;4990314;28;20780;-80
2022/09/13 07:52:53;;;;;;;1.70;1.60;;;18.10;96.10;;;;;;5004900;28;20628;-78
2022/09/13 07:55:20;;;;;;;1.90;1.60;;;18.10;95.80;;;;;;4989213;28;20641;-79
2022/09/13 07:57:46;;;;;;;1.40;1.30;;;18.30;96.50;;;;;;4993683;28;20748;-80
2022/09/13 08:00:15;;;;;;;2.60;2.40;;;18.50;96.50;;;;;;5006635;28;20620;-80
2022/09/13 08:02:42;;;;;;;1.97;1.40;;;18.60;96.30;;;;;;4995088;28;20742;-80
2022/09/13 08:05:10;;;;;;;2.17;1.70;;;18.80;96.70;;;;;;5002152;28;20628;-79
2022/09/13 08:07:37;;;;;;;1.57;1.30;;;19.00;95.70;;;;;;5008092;28;21193;-77
2022/09/13 08:10:04;;;;;;;1.30;1.20;;;19.20;95.10;;;;;;5008272;28;20682;-79
2022/09/13 08:12:31;;;;;;;1.60;1.50;;;19.30;95.30;;;;;;5006266;28;20628;-79
2022/09/13 08:14:57;;;;;;;2.30;1.63;;;19.50;94.70;;;;;;5007595;28;20635;-79
2022/09/13 08:17:24;;;;;;;1.10;1.10;;;19.60;95.00;;;;;;5003314;28;21589;-78
2022/09/13 08:19:51;;;;;;;6.20;1.60;;;19.60;94.40;;;;;;5005903;28;20715;-79
2022/09/13 08:22:20;;;;;;;1.53;1.40;;;19.80;93.60;;;;;;5007658;28;20631;-79
2022/09/13 08:24:46;;;;;;;3.47;1.90;;;19.70;94.40;;;;;;5007588;28;20624;-79
2022/09/13 08:27:13;;;;;;;1.60;1.50;;;19.80;93.80;;;;;;5007674;28;20636;-79
2022/09/13 08:29:40;;;;;;;1.37;1.27;;;19.70;94.30;;;;;;5005291;28;20759;-78
2022/09/13 08:32:07;;;;;;;2.43;1.53;;;19.60;94.50;;;;;;4996361;28;20628;-79
2022/09/13 08:34:33;;;;;;;1.67;1.57;;;19.80;93.70;;;;;;5002327;28;20635;-78
2022/09/13 08:37:00;;;;;;;2.10;2.00;;;19.90;93.30;;;;;;5000840;28;20639;-79
2022/09/13 08:39:28;;;;;;;1.70;1.33;;;19.90;93.70;;;;;;5002940;28;20626;-79
2022/09/13 08:42:16;;;;;;;2.73;1.57;;;20.00;93.90;;;;;;5006895;28;21248;-79
2022/09/13 08:44:47;;;;;;;2.03;1.83;;;20.10;93.60;;;;;;5003582;28;20663;-80
2022/09/13 08:47:36;;;;;;;2.17;2.00;;;20.20;93.20;;;;;;5006961;28;21209;-79
2022/09/13 08:50:12;;;;;;;2.40;1.87;;;20.40;92.90;;;;;;5004562;28;20867;-79
2022/09/13 08:53:08;;;;;;;1.40;1.30;;;20.60;93.10;;;;;;5007695;28;20731;-79
2022/09/13 08:55:49;;;;;;;1.63;1.53;;;20.50;93.50;;;;;;4983919;28;20781;-78
2022/09/13 08:58:36;;;;;;;2.47;1.70;;;20.70;93.00;;;;;;4994017;28;21200;-79
2022/09/13 09:01:07;;;;;;;1.80;1.70;;;20.70;93.00;;;;;;5007341;28;20925;-79
2022/09/13 09:03:42;;;;;;;2.67;1.57;;;20.80;92.80;;;;;;5000605;28;21347;-78
2022/09/13 09:06:13;;;;;;;1.97;1.87;;;20.70;93.10;;;;;;5006093;28;20642;-79
2022/09/13 09:08:45;;;;;;;2.40;2.20;;;20.70;92.60;;;;;;4999244;28;20696;-78
2022/09/13 09:11:26;;;;;;;2.37;2.17;;;20.80;93.60;;;;;;4994778;28;20656;-79
2022/09/13 09:13:57;;;;;;;2.00;1.80;;;20.90;93.60;;;;;;5007638;28;20632;-79
2022/09/13 09:16:33;;;;;;;2.13;1.93;;;20.90;92.90;;;;;;5007364;28;20667;-79
2022/09/13 09:19:05;;;;;;;1.93;1.83;;;21.10;92.80;;;;;;5007498;28;21231;-79
2022/09/13 09:21:33;;;;;;;1.83;1.57;;;21.20;92.20;;;;;;5000772;28;20664;-79
2022/09/13 09:24:03;;;;;;;2.30;1.97;;;21.20;91.70;;;;;;5006454;28;20723;-79
2022/09/13 09:26:31;;;;;;;1.97;1.80;;;21.20;92.10;;;;;;5007054;28;20982;-78
2022/09/13 09:29:00;;;;;;;2.37;1.80;;;21.30;92.10;;;;;;5006914;28;20625;-78
2022/09/13 09:31:35;;;;;;;1.60;1.20;;;21.40;92.20;;;;;;5007614;28;20750;-79
2022/09/13 09:34:11;;;;;;;1.27;1.20;;;21.40;92.10;;;;;;4993199;28;20633;-79
2022/09/13 09:36:42;;;;;;;2.57;1.60;;;21.50;91.80;;;;;;4993636;28;21190;-79
2022/09/13 09:39:12;;;;;;;1.33;1.23;;;21.60;92.40;;;;;;5000519;28;20731;-79
2022/09/13 09:41:41;;;;;;;1.60;1.50;;;21.70;92.50;;;;;;5005893;28;20640;-79
2022/09/13 09:44:17;;;;;;;2.20;1.33;;;21.80;90.90;;;;;;5010410;28;20616;-78
2022/09/13 09:46:47;;;;;;;1.77;1.67;;;22.00;90.70;;;;;;4994783;28;20628;-78
2022/09/13 09:52:05;;;;;;;1.50;1.40;;;22.00;87.30;;;;;;4986990;28;20670;-79
2022/09/13 09:54:33;;;;;;;0.90;0.90;;;22.10;85.80;;;;;;4990862;28;20624;-79
2022/09/13 09:57:02;;;;;;;1.33;1.23;;;22.20;86.10;;;;;;5004276;28;20719;-79
2022/09/13 09:59:31;;;;;;;1.30;1.20;;;22.40;86.30;;;;;;5008245;28;20655;-79
2022/09/13 10:01:59;;;;;;;2.00;1.20;;;22.50;83.70;;;;;;5009433;28;20642;-80
2022/09/13 10:04:26;;;;;;;1.30;1.20;;;22.50;83.00;;;;;;5009618;28;20670;-79
2022/09/13 10:07:10;;;;;;;1.20;1.20;;;22.50;82.10;;;;;;5003859;28;20631;-80
2022/09/13 10:09:38;;;;;;;1.47;1.37;;;22.70;83.50;;;;;;5007497;28;20624;-78
2022/09/13 10:12:07;;;;;;;1.10;1.00;;;22.70;86.50;;;;;;5003689;28;20674;-78
2022/09/13 10:14:39;;;;;;;1.47;1.37;;;22.70;86.30;;;;;;5009553;28;21318;-80
2022/09/13 10:17:16;;;;;;;1.77;1.30;;;22.80;83.70;;;;;;5002177;28;20625;-80
2022/09/13 10:19:52;;;;;;;1.70;1.27;;;22.90;83.90;;;;;;4990615;28;20624;-80
2022/09/13 10:22:20;;;;;;;2.43;0.80;;;22.90;86.10;;;;;;5006482;28;20631;-79
2022/09/13 10:24:47;;;;;;;1.23;1.13;;;22.80;79.60;;;;;;4996177;28;20656;-78
2022/09/13 10:27:24;;;;;;;1.23;1.23;;;22.90;79.20;;;;;;5010236;28;20748;-79
2022/09/13 10:29:55;;;;;;;1.10;1.00;;;22.90;79.50;;;;;;5008677;28;20635;-79
2022/09/13 10:32:23;;;;;;;1.17;1.07;;;23.00;77.60;;;;;;5000863;28;20728;-79
2022/09/13 10:34:50;;;;;;;1.20;1.10;;;22.90;77.10;;;;;;4998041;28;21186;-79
2022/09/13 10:37:21;;;;;;;1.53;0.77;;;23.00;77.30;;;;;;5009303;28;20624;-79
2022/09/13 10:40:01;;;;;;;1.00;0.87;;;23.20;74.60;;;;;;5009370;28;20628;-79
2022/09/13 10:42:31;;;;;;;27.23;1.63;;;23.40;72.30;;;;;;4990341;28;20719;-79
2022/09/13 10:45:00;;;;;;;1.00;1.00;;;23.30;75.10;;;;;;4993784;28;20620;-79
2022/09/13 10:47:32;;;;;;;1.00;0.80;;;23.40;72.60;;;;;;5008974;28;20702;-79
2022/09/13 10:50:10;;;;;;;1.00;1.00;;;23.50;72.90;;;;;;5006339;28;20744;-79
2022/09/13 10:52:43;;;;;;;1.77;1.20;;;23.50;72.90;;;;;;5008690;28;20274;-80
2022/09/13 10:55:29;;;;;;;0.90;0.90;;;23.60;71.60;;;;;;5005701;28;20624;-79
2022/09/13 10:58:17;;;;;;;0.80;0.80;;;23.80;69.50;;;;;;4999071;28;20963;-79
2022/09/13 11:01:17;;;;;;;0.77;0.77;;;23.90;71.40;;;;;;5006059;28;20632;-79
2022/09/13 11:04:03;;;;;;;0.90;0.90;;;24.00;67.60;;;;;;5007567;28;20723;-79
2022/09/13 11:06:38;;;;;;;0.80;0.80;;;24.00;68.10;;;;;;5008891;28;21202;-79
2022/09/13 11:09:12;;;;;;;1.10;1.00;;;24.40;65.70;;;;;;5009720;28;20623;-79
2022/09/13 11:11:49;;;;;;;0.57;0.57;;;24.60;65.00;;;;;;5008026;28;20734;-79
2022/09/13 11:14:40;;;;;;;1.00;1.00;;;24.80;62.50;;;;;;5008755;28;20627;-79
2022/09/13 11:17:19;;;;;;;0.60;0.60;;;24.80;60.60;;;;;;4990123;28;20643;-79
2022/09/13 11:20:15;;;;;;;0.60;0.60;;;24.80;59.80;;;;;;5006278;28;20655;-79
2022/09/13 11:23:08;;;;;;;0.80;0.50;;;24.80;63.00;;;;;;5008924;28;20628;-79
2022/09/13 11:26:07;;;;;;;0.70;0.70;;;24.90;59.80;;;;;;5008562;28;20616;-80
2022/09/13 11:28:47;;;;;;;0.60;0.60;;;25.10;60.00;;;;;;5008285;28;20624;-80
2022/09/13 11:31:29;;;;;;;0.80;0.80;;;25.00;60.30;;;;;;5008741;28;20667;-79
2022/09/13 11:34:11;;;;;;;0.63;0.63;;;25.20;59.70;;;;;;5008891;28;20747;-79
2022/09/13 11:36:53;;;;;;;1.10;0.70;;;25.40;58.60;;;;;;5008406;28;20723;-79
2022/09/13 11:39:30;;;;;;;0.60;0.50;;;25.20;57.90;;;;;;5000257;28;20624;-80
2022/09/13 11:42:05;;;;;;;13.43;10.50;;;25.20;58.30;;;;;;5007224;28;20724;-80
2022/09/13 11:45:01;;;;;;;4.17;3.83;;;25.30;61.40;;;;;;5008743;28;20734;-80
2022/09/13 11:47:41;;;;;;;0.83;0.83;;;25.40;59.00;;;;;;4986990;28;20673;-80
2022/09/13 11:50:25;;;;;;;0.60;0.60;;;25.50;59.10;;;;;;5000877;28;20637;-80
2022/09/13 11:53:03;;;;;;;1.20;0.90;;;25.50;59.50;;;;;;5008207;28;20634;-80
2022/09/13 11:55:35;;;;;;;0.80;0.80;;;25.40;58.70;;;;;;5007537;28;21068;-80
2022/09/13 11:58:04;;;;;;;1.00;0.90;;;25.50;60.20;;;;;;5005075;28;20621;-80
2022/09/13 12:00:34;;;;;;;2.87;0.90;;;25.50;59.50;;;;;;5002438;28;20629;-80
2022/09/13 12:03:15;;;;;;;0.83;0.83;;;25.60;58.70;;;;;;4992831;28;20633;-80
2022/09/13 12:05:47;;;;;;;0.67;0.60;;;25.50;60.30;;;;;;4996081;28;20632;-80
2022/09/13 12:08:18;;;;;;;0.90;0.90;;;25.00;59.70;;;;;;5007584;28;21177;-80
2022/09/13 12:10:50;;;;;;;0.90;0.90;;;25.10;60.60;;;;;;5007592;28;20793;-79
2022/09/13 12:13:21;;;;;;;0.83;0.83;;;25.20;63.70;;;;;;5008020;28;20632;-80
2022/09/13 12:15:52;;;;;;;0.93;0.80;;;25.00;59.90;;;;;;4994652;28;20638;-80
2022/09/13 12:18:25;;;;;;;1.13;0.83;;;25.00;59.30;;;;;;5008069;28;20662;-80
2022/09/13 12:20:55;;;;;;;1.30;1.20;;;25.00;62.20;;;;;;5007218;28;20739;-80
2022/09/13 12:23:28;;;;;;;0.80;0.77;;;25.20;61.80;;;;;;5007882;28;20659;-80
2022/09/13 12:26:00;;;;;;;0.93;0.90;;;25.20;61.20;;;;;;5007504;28;20632;-80
2022/09/13 12:28:34;;;;;;;1.07;0.97;;;25.30;64.50;;;;;;5000128;28;21224;-81
2022/09/13 12:31:06;;;;;;;0.93;0.93;;;25.40;63.80;;;;;;4997226;28;20791;-80
2022/09/13 12:33:39;;;;;;;0.93;0.90;;;25.40;62.00;;;;;;5007912;28;20743;-80
2022/09/13 12:36:37;;;;;;;1.63;0.90;;;25.40;65.00;;;;;;5007012;28;21062;-79
2022/09/13 12:39:38;;;;;;;1.23;0.90;;;25.30;60.80;;;;;;4991848;28;21000;-80
2022/09/13 12:42:30;;;;;;;1.07;0.97;;;25.40;63.00;;;;;;5005587;28;20632;-80
2022/09/13 12:45:29;;;;;;;1.97;1.20;;;25.50;61.80;;;;;;5006934;28;20666;-79
2022/09/13 12:48:41;;;;;;;1.10;1.10;;;25.40;62.20;;;;;;4993141;28;20632;-79
2022/09/13 12:51:28;;;;;;;1.30;1.20;;;25.30;62.90;;;;;;4978451;28;20779;-80
2022/09/13 12:54:33;;;;;;;1.00;0.83;;;25.30;62.80;;;;;;4997077;28;21213;-81
2022/09/13 12:57:16;;;;;;;1.83;1.10;;;25.30;59.70;;;;;;4994084;28;20679;-80
2022/09/13 12:59:59;;;;;;;0.90;0.80;;;25.40;61.10;;;;;;5001801;28;20624;-80
2022/09/13 13:02:30;;;;;;;0.80;0.80;;;25.60;59.10;;;;;;4998183;28;21133;-79
2022/09/13 13:05:02;;;;;;;0.90;0.90;;;25.50;59.70;;;;;;5006355;28;20628;-80
2022/09/13 13:07:33;;;;;;;1.90;1.00;;;25.80;57.40;;;;;;5007492;28;20682;-80
2022/09/13 13:10:01;;;;;;;0.70;0.70;;;25.90;57.30;;;;;;5006922;28;20745;-80
2022/09/13 13:12:32;;;;;;;1.00;1.00;;;26.10;57.60;;;;;;5008825;28;20668;-79
2022/09/13 13:14:59;;;;;;;1.67;0.90;;;26.10;56.60;;;;;;5007660;28;20732;-80
2022/09/13 13:17:50;;;;;;;0.60;0.60;;;26.20;56.10;;;;;;5004236;28;20628;-79